McCall, Idaho
Current Conditions -  °F | °C
As of 9:51 AM on Thursday 23 Oct 2014 (Local Time) from KMYL Reporting Station
Overcast Overcast  
Wind Chill: 42°   Ceiling: 5500
Heat Index: 45°   Visibility: 10mi
Dew Point: 41°   Wind: 6mph
Humidity: 86%   Direction: 130°SE
Pressure: 30.03"   Gusts: NA
Location:  44.91°N, 116.1°W
Report Text: KMYL 231551Z AUTO 13005KT 10SM SCT029 BKN055 OVC080 07/05 A3003 RMK AO2 SLP161 T00720050
Loading
Personal Weather Stations






























Interactive Weather Map New forecast layout! Learn more

10-Day Weather Forecast

Advertisements
Track Severe Weather on mobile